sensor_id;sensor_type;location;lat;lon;timestamp;temperature;humidity
24522;DHT22;12680;57.804;12.190;2023-05-07T00:00:35;6.40;73.10
24522;DHT22;12680;57.804;12.190;2023-05-07T00:03:01;6.30;72.80
24522;DHT22;12680;57.804;12.190;2023-05-07T00:05:28;6.30;72.90
24522;DHT22;12680;57.804;12.190;2023-05-07T00:07:55;6.30;72.70
24522;DHT22;12680;57.804;12.190;2023-05-07T00:10:26;6.30;72.80
24522;DHT22;12680;57.804;12.190;2023-05-07T00:12:52;6.20;72.90
24522;DHT22;12680;57.804;12.190;2023-05-07T00:15:19;6.30;72.80
24522;DHT22;12680;57.804;12.190;2023-05-07T00:17:46;6.20;72.80
24522;DHT22;12680;57.804;12.190;2023-05-07T00:20:13;6.20;73.00
24522;DHT22;12680;57.804;12.190;2023-05-07T00:22:39;6.20;73.20
24522;DHT22;12680;57.804;12.190;2023-05-07T00:25:06;6.30;73.10
24522;DHT22;12680;57.804;12.190;2023-05-07T00:27:33;6.20;72.90
24522;DHT22;12680;57.804;12.190;2023-05-07T00:30:00;6.20;72.80
24522;DHT22;12680;57.804;12.190;2023-05-07T00:32:27;6.20;72.80
24522;DHT22;12680;57.804;12.190;2023-05-07T00:34:53;6.20;72.40
24522;DHT22;12680;57.804;12.190;2023-05-07T00:37:20;7.50;73.30
24522;DHT22;12680;57.804;12.190;2023-05-07T00:39:47;6.10;72.60
24522;DHT22;12680;57.804;12.190;2023-05-07T00:42:14;6.10;72.70
24522;DHT22;12680;57.804;12.190;2023-05-07T00:44:42;6.00;73.00
24522;DHT22;12680;57.804;12.190;2023-05-07T00:47:09;8.10;74.50
24522;DHT22;12680;57.804;12.190;2023-05-07T00:49:42;6.10;73.20
24522;DHT22;12680;57.804;12.190;2023-05-07T00:52:11;6.10;73.30
24522;DHT22;12680;57.804;12.190;2023-05-07T00:54:38;6.00;73.10
24522;DHT22;12680;57.804;12.190;2023-05-07T00:57:06;6.00;73.30
24522;DHT22;12680;57.804;12.190;2023-05-07T00:59:33;6.00;73.60
24522;DHT22;12680;57.804;12.190;2023-05-07T01:02:01;6.00;73.50
24522;DHT22;12680;57.804;12.190;2023-05-07T01:04:28;6.00;73.60
24522;DHT22;12680;57.804;12.190;2023-05-07T01:06:56;6.00;73.60
24522;DHT22;12680;57.804;12.190;2023-05-07T01:09:24;6.00;73.50
24522;DHT22;12680;57.804;12.190;2023-05-07T01:11:52;6.00;73.40
24522;DHT22;12680;57.804;12.190;2023-05-07T01:14:19;5.90;74.00
24522;DHT22;12680;57.804;12.190;2023-05-07T01:16:47;5.90;73.20
24522;DHT22;12680;57.804;12.190;2023-05-07T01:19:17;5.90;73.20
24522;DHT22;12680;57.804;12.190;2023-05-07T01:21:48;5.80;73.20
24522;DHT22;12680;57.804;12.190;2023-05-07T01:24:16;5.70;73.00
24522;DHT22;12680;57.804;12.190;2023-05-07T01:26:44;5.70;73.30
24522;DHT22;12680;57.804;12.190;2023-05-07T01:29:13;5.60;73.20
24522;DHT22;12680;57.804;12.190;2023-05-07T01:31:41;5.60;73.40
24522;DHT22;12680;57.804;12.190;2023-05-07T01:34:11;5.50;73.40
24522;DHT22;12680;57.804;12.190;2023-05-07T01:36:40;5.50;73.80
24522;DHT22;12680;57.804;12.190;2023-05-07T01:39:09;5.50;73.80
24522;DHT22;12680;57.804;12.190;2023-05-07T01:41:37;5.40;73.60
24522;DHT22;12680;57.804;12.190;2023-05-07T01:44:05;5.40;73.80
24522;DHT22;12680;57.804;12.190;2023-05-07T01:46:36;5.30;73.70
24522;DHT22;12680;57.804;12.190;2023-05-07T01:49:03;5.30;73.70
24522;DHT22;12680;57.804;12.190;2023-05-07T01:51:31;5.30;73.60
24522;DHT22;12680;57.804;12.190;2023-05-07T01:53:58;5.20;73.40
24522;DHT22;12680;57.804;12.190;2023-05-07T01:56:25;5.20;74.00
24522;DHT22;12680;57.804;12.190;2023-05-07T01:58:51;5.10;73.70
24522;DHT22;12680;57.804;12.190;2023-05-07T02:01:18;5.00;73.80
24522;DHT22;12680;57.804;12.190;2023-05-07T02:03:45;4.90;73.80
24522;DHT22;12680;57.804;12.190;2023-05-07T02:06:12;4.80;73.90
24522;DHT22;12680;57.804;12.190;2023-05-07T02:08:39;4.80;74.30
24522;DHT22;12680;57.804;12.190;2023-05-07T02:11:06;4.80;74.40
24522;DHT22;12680;57.804;12.190;2023-05-07T02:13:33;4.70;74.50
24522;DHT22;12680;57.804;12.190;2023-05-07T02:16:04;4.70;74.30
24522;DHT22;12680;57.804;12.190;2023-05-07T02:18:31;4.60;74.40
24522;DHT22;12680;57.804;12.190;2023-05-07T02:20:58;5.90;75.30
24522;DHT22;12680;57.804;12.190;2023-05-07T02:23:25;4.50;74.30
24522;DHT22;12680;57.804;12.190;2023-05-07T02:25:52;4.40;74.40
24522;DHT22;12680;57.804;12.190;2023-05-07T02:28:18;4.30;74.60
24522;DHT22;12680;57.804;12.190;2023-05-07T02:30:45;4.30;74.90
24522;DHT22;12680;57.804;12.190;2023-05-07T02:33:12;5.20;75.60
24522;DHT22;12680;57.804;12.190;2023-05-07T02:35:40;4.30;76.10
24522;DHT22;12680;57.804;12.190;2023-05-07T02:38:07;4.20;75.40
24522;DHT22;12680;57.804;12.190;2023-05-07T02:40:37;5.30;76.40
24522;DHT22;12680;57.804;12.190;2023-05-07T02:43:06;4.20;76.00
24522;DHT22;12680;57.804;12.190;2023-05-07T02:45:33;4.30;75.90
24522;DHT22;12680;57.804;12.190;2023-05-07T02:48:00;4.20;75.70
24522;DHT22;12680;57.804;12.190;2023-05-07T02:50:27;4.20;76.10
24522;DHT22;12680;57.804;12.190;2023-05-07T02:52:54;4.20;76.30
24522;DHT22;12680;57.804;12.190;2023-05-07T02:55:21;4.20;76.50
24522;DHT22;12680;57.804;12.190;2023-05-07T02:57:48;4.20;76.50
24522;DHT22;12680;57.804;12.190;2023-05-07T03:00:17;4.20;76.30
24522;DHT22;12680;57.804;12.190;2023-05-07T03:02:44;4.10;76.10
24522;DHT22;12680;57.804;12.190;2023-05-07T03:05:12;4.10;76.40
24522;DHT22;12680;57.804;12.190;2023-05-07T03:07:39;4.00;76.40
24522;DHT22;12680;57.804;12.190;2023-05-07T03:10:06;3.90;76.30
24522;DHT22;12680;57.804;12.190;2023-05-07T03:12:33;4.00;76.70
24522;DHT22;12680;57.804;12.190;2023-05-07T03:14:59;4.00;76.90
24522;DHT22;12680;57.804;12.190;2023-05-07T03:17:26;4.00;77.10
24522;DHT22;12680;57.804;12.190;2023-05-07T03:19:53;4.00;76.90
24522;DHT22;12680;57.804;12.190;2023-05-07T03:22:20;4.00;76.80
24522;DHT22;12680;57.804;12.190;2023-05-07T03:24:47;3.90;76.60
24522;DHT22;12680;57.804;12.190;2023-05-07T03:27:13;3.90;77.30
24522;DHT22;12680;57.804;12.190;2023-05-07T03:29:40;3.90;76.70
24522;DHT22;12680;57.804;12.190;2023-05-07T03:32:07;3.80;76.50
24522;DHT22;12680;57.804;12.190;2023-05-07T03:34:34;3.80;76.90
24522;DHT22;12680;57.804;12.190;2023-05-07T03:37:00;3.80;77.10
24522;DHT22;12680;57.804;12.190;2023-05-07T03:39:27;3.80;77.20
24522;DHT22;12680;57.804;12.190;2023-05-07T03:41:54;3.80;77.40
24522;DHT22;12680;57.804;12.190;2023-05-07T03:44:21;3.80;77.30
24522;DHT22;12680;57.804;12.190;2023-05-07T03:46:48;3.90;77.30
24522;DHT22;12680;57.804;12.190;2023-05-07T03:49:14;3.80;77.40
24522;DHT22;12680;57.804;12.190;2023-05-07T03:51:41;3.90;77.60
24522;DHT22;12680;57.804;12.190;2023-05-07T03:54:08;3.90;77.70
24522;DHT22;12680;57.804;12.190;2023-05-07T03:56:35;3.90;77.70
24522;DHT22;12680;57.804;12.190;2023-05-07T03:59:01;3.90;77.90
24522;DHT22;12680;57.804;12.190;2023-05-07T04:01:28;3.90;77.90
24522;DHT22;12680;57.804;12.190;2023-05-07T04:03:55;4.00;77.90
24522;DHT22;12680;57.804;12.190;2023-05-07T04:06:22;4.00;77.90
24522;DHT22;12680;57.804;12.190;2023-05-07T04:08:49;4.00;77.90
24522;DHT22;12680;57.804;12.190;2023-05-07T04:11:16;4.10;78.00
24522;DHT22;12680;57.804;12.190;2023-05-07T04:13:42;4.20;77.90
24522;DHT22;12680;57.804;12.190;2023-05-07T04:16:09;4.20;77.80
24522;DHT22;12680;57.804;12.190;2023-05-07T04:18:36;4.20;77.80
24522;DHT22;12680;57.804;12.190;2023-05-07T04:21:03;4.30;77.80
24522;DHT22;12680;57.804;12.190;2023-05-07T04:23:30;4.20;77.80
24522;DHT22;12680;57.804;12.190;2023-05-07T04:25:56;5.60;78.50
24522;DHT22;12680;57.804;12.190;2023-05-07T04:28:24;4.30;77.50
24522;DHT22;12680;57.804;12.190;2023-05-07T04:30:50;5.80;78.60
24522;DHT22;12680;57.804;12.190;2023-05-07T04:33:17;4.30;77.70
24522;DHT22;12680;57.804;12.190;2023-05-07T04:35:44;5.90;78.80
24522;DHT22;12680;57.804;12.190;2023-05-07T04:38:12;4.30;77.80
24522;DHT22;12680;57.804;12.190;2023-05-07T04:40:39;4.30;77.70
24522;DHT22;12680;57.804;12.190;2023-05-07T04:43:08;4.30;77.80
24522;DHT22;12680;57.804;12.190;2023-05-07T04:45:36;4.40;78.00
24522;DHT22;12680;57.804;12.190;2023-05-07T04:48:03;4.50;78.00
24522;DHT22;12680;57.804;12.190;2023-05-07T04:50:30;4.50;78.00
24522;DHT22;12680;57.804;12.190;2023-05-07T04:52:57;5.20;78.10
24522;DHT22;12680;57.804;12.190;2023-05-07T04:55:23;4.60;77.40
24522;DHT22;12680;57.804;12.190;2023-05-07T04:57:50;4.60;77.20
24522;DHT22;12680;57.804;12.190;2023-05-07T05:00:18;4.60;77.20
24522;DHT22;12680;57.804;12.190;2023-05-07T05:02:46;4.70;77.20
24522;DHT22;12680;57.804;12.190;2023-05-07T05:05:13;4.70;77.10
24522;DHT22;12680;57.804;12.190;2023-05-07T05:07:39;4.80;77.00
24522;DHT22;12680;57.804;12.190;2023-05-07T05:10:06;4.80;76.90
24522;DHT22;12680;57.804;12.190;2023-05-07T05:12:33;4.90;76.80
24522;DHT22;12680;57.804;12.190;2023-05-07T05:15:00;5.00;76.70
24522;DHT22;12680;57.804;12.190;2023-05-07T05:17:27;5.10;76.60
24522;DHT22;12680;57.804;12.190;2023-05-07T05:19:53;5.20;76.60
24522;DHT22;12680;57.804;12.190;2023-05-07T05:22:20;5.30;76.50
24522;DHT22;12680;57.804;12.190;2023-05-07T05:24:47;5.40;76.50
24522;DHT22;12680;57.804;12.190;2023-05-07T05:27:14;6.10;76.50
24522;DHT22;12680;57.804;12.190;2023-05-07T05:29:41;5.50;75.80
24522;DHT22;12680;57.804;12.190;2023-05-07T05:32:07;5.60;75.70
24522;DHT22;12680;57.804;12.190;2023-05-07T05:34:34;5.60;75.50
24522;DHT22;12680;57.804;12.190;2023-05-07T05:37:01;5.70;75.10
24522;DHT22;12680;57.804;12.190;2023-05-07T05:39:28;5.80;75.10
24522;DHT22;12680;57.804;12.190;2023-05-07T05:41:55;5.90;75.10
24522;DHT22;12680;57.804;12.190;2023-05-07T05:44:21;6.00;74.80
24522;DHT22;12680;57.804;12.190;2023-05-07T05:46:48;6.10;74.50
24522;DHT22;12680;57.804;12.190;2023-05-07T05:49:16;6.10;74.10
24522;DHT22;12680;57.804;12.190;2023-05-07T05:51:43;6.00;73.70
24522;DHT22;12680;57.804;12.190;2023-05-07T05:54:10;6.30;73.80
24522;DHT22;12680;57.804;12.190;2023-05-07T05:56:37;6.40;73.70
24522;DHT22;12680;57.804;12.190;2023-05-07T05:59:04;6.90;73.60
24522;DHT22;12680;57.804;12.190;2023-05-07T06:01:31;6.60;72.80
24522;DHT22;12680;57.804;12.190;2023-05-07T06:03:58;6.70;72.70
24522;DHT22;12680;57.804;12.190;2023-05-07T06:06:25;6.80;72.20
24522;DHT22;12680;57.804;12.190;2023-05-07T06:08:52;6.90;71.90
24522;DHT22;12680;57.804;12.190;2023-05-07T06:11:19;7.00;71.90
24522;DHT22;12680;57.804;12.190;2023-05-07T06:13:46;7.10;71.60
24522;DHT22;12680;57.804;12.190;2023-05-07T06:16:14;7.20;71.20
24522;DHT22;12680;57.804;12.190;2023-05-07T06:18:41;8.40;71.70
24522;DHT22;12680;57.804;12.190;2023-05-07T06:21:09;7.30;71.00
24522;DHT22;12680;57.804;12.190;2023-05-07T06:23:36;7.50;71.20
24522;DHT22;12680;57.804;12.190;2023-05-07T06:26:02;7.60;70.90
24522;DHT22;12680;57.804;12.190;2023-05-07T06:28:29;7.80;70.80
24522;DHT22;12680;57.804;12.190;2023-05-07T06:31:15;9.20;71.30
24522;DHT22;12680;57.804;12.190;2023-05-07T06:33:44;8.10;70.20
24522;DHT22;12680;57.804;12.190;2023-05-07T06:36:12;8.20;69.80
24522;DHT22;12680;57.804;12.190;2023-05-07T06:38:38;8.30;69.80
24522;DHT22;12680;57.804;12.190;2023-05-07T06:41:06;8.40;69.70
24522;DHT22;12680;57.804;12.190;2023-05-07T06:43:33;8.60;69.50
24522;DHT22;12680;57.804;12.190;2023-05-07T06:46:00;8.70;69.20
24522;DHT22;12680;57.804;12.190;2023-05-07T06:48:27;8.80;68.50
24522;DHT22;12680;57.804;12.190;2023-05-07T06:50:53;8.90;68.10
24522;DHT22;12680;57.804;12.190;2023-05-07T06:53:22;9.00;67.70
24522;DHT22;12680;57.804;12.190;2023-05-07T06:55:48;9.10;67.00
24522;DHT22;12680;57.804;12.190;2023-05-07T06:58:15;9.10;66.40
24522;DHT22;12680;57.804;12.190;2023-05-07T07:00:42;9.20;66.30
24522;DHT22;12680;57.804;12.190;2023-05-07T07:03:09;10.10;66.40
24522;DHT22;12680;57.804;12.190;2023-05-07T07:05:36;9.40;66.30
24522;DHT22;12680;57.804;12.190;2023-05-07T07:08:03;9.50;66.20
24522;DHT22;12680;57.804;12.190;2023-05-07T07:10:30;9.70;65.70
24522;DHT22;12680;57.804;12.190;2023-05-07T07:12:56;9.70;64.90
24522;DHT22;12680;57.804;12.190;2023-05-07T07:15:23;9.80;64.50
24522;DHT22;12680;57.804;12.190;2023-05-07T07:17:51;9.90;63.90
24522;DHT22;12680;57.804;12.190;2023-05-07T07:20:18;9.90;63.70
24522;DHT22;12680;57.804;12.190;2023-05-07T07:22:45;10.10;63.90
24522;DHT22;12680;57.804;12.190;2023-05-07T07:25:12;10.20;63.60
24522;DHT22;12680;57.804;12.190;2023-05-07T07:27:38;10.30;62.40
24522;DHT22;12680;57.804;12.190;2023-05-07T07:30:07;10.30;61.90
24522;DHT22;12680;57.804;12.190;2023-05-07T07:32:35;10.50;62.10
24522;DHT22;12680;57.804;12.190;2023-05-07T07:35:02;10.60;62.10
24522;DHT22;12680;57.804;12.190;2023-05-07T07:37:28;10.60;61.50
24522;DHT22;12680;57.804;12.190;2023-05-07T07:39:56;10.70;61.20
24522;DHT22;12680;57.804;12.190;2023-05-07T07:42:22;12.20;61.40
24522;DHT22;12680;57.804;12.190;2023-05-07T07:44:49;10.90;60.30
24522;DHT22;12680;57.804;12.190;2023-05-07T07:47:16;11.70;60.70
24522;DHT22;12680;57.804;12.190;2023-05-07T07:49:43;11.10;60.00
24522;DHT22;12680;57.804;12.190;2023-05-07T07:52:10;11.20;59.50
24522;DHT22;12680;57.804;12.190;2023-05-07T07:54:36;11.30;59.10
24522;DHT22;12680;57.804;12.190;2023-05-07T07:57:03;11.30;58.40
24522;DHT22;12680;57.804;12.190;2023-05-07T07:59:30;11.40;58.50
24522;DHT22;12680;57.804;12.190;2023-05-07T08:01:57;11.50;58.60
24522;DHT22;12680;57.804;12.190;2023-05-07T08:04:24;11.60;58.30
24522;DHT22;12680;57.804;12.190;2023-05-07T08:06:50;11.70;58.10
24522;DHT22;12680;57.804;12.190;2023-05-07T08:09:17;11.90;57.90
24522;DHT22;12680;57.804;12.190;2023-05-07T08:11:44;11.90;57.40
24522;DHT22;12680;57.804;12.190;2023-05-07T08:14:11;12.10;57.00
24522;DHT22;12680;57.804;12.190;2023-05-07T08:16:38;12.10;56.50
24522;DHT22;12680;57.804;12.190;2023-05-07T08:19:05;12.20;56.00
24522;DHT22;12680;57.804;12.190;2023-05-07T08:21:31;12.30;55.90
24522;DHT22;12680;57.804;12.190;2023-05-07T08:24:00;12.40;55.30
24522;DHT22;12680;57.804;12.190;2023-05-07T08:26:27;12.50;54.60
24522;DHT22;12680;57.804;12.190;2023-05-07T08:28:53;12.50;54.50
24522;DHT22;12680;57.804;12.190;2023-05-07T08:31:20;12.50;54.70
24522;DHT22;12680;57.804;12.190;2023-05-07T08:33:47;12.70;54.50
24522;DHT22;12680;57.804;12.190;2023-05-07T08:36:13;12.80;54.20
24522;DHT22;12680;57.804;12.190;2023-05-07T08:38:40;12.80;53.10
24522;DHT22;12680;57.804;12.190;2023-05-07T08:41:10;14.20;53.80
24522;DHT22;12680;57.804;12.190;2023-05-07T08:43:38;14.00;53.70
24522;DHT22;12680;57.804;12.190;2023-05-07T08:46:09;13.00;53.00
24522;DHT22;12680;57.804;12.190;2023-05-07T08:48:36;13.10;53.00
24522;DHT22;12680;57.804;12.190;2023-05-07T08:51:03;13.10;53.10
24522;DHT22;12680;57.804;12.190;2023-05-07T08:53:30;13.30;53.00
24522;DHT22;12680;57.804;12.190;2023-05-07T08:55:58;14.10;52.50
24522;DHT22;12680;57.804;12.190;2023-05-07T08:58:25;13.40;52.40
24522;DHT22;12680;57.804;12.190;2023-05-07T09:00:53;13.80;51.80
24522;DHT22;12680;57.804;12.190;2023-05-07T09:03:20;13.50;51.80
24522;DHT22;12680;57.804;12.190;2023-05-07T09:05:47;13.70;52.10
24522;DHT22;12680;57.804;12.190;2023-05-07T09:08:15;13.80;51.60
24522;DHT22;12680;57.804;12.190;2023-05-07T09:10:42;15.40;52.30
24522;DHT22;12680;57.804;12.190;2023-05-07T09:13:09;13.90;50.40
24522;DHT22;12680;57.804;12.190;2023-05-07T09:15:39;14.00;50.90
24522;DHT22;12680;57.804;12.190;2023-05-07T09:18:06;14.10;50.20
24522;DHT22;12680;57.804;12.190;2023-05-07T09:20:33;15.20;50.30
24522;DHT22;12680;57.804;12.190;2023-05-07T09:23:00;14.60;50.10
24522;DHT22;12680;57.804;12.190;2023-05-07T09:25:31;14.30;49.40
24522;DHT22;12680;57.804;12.190;2023-05-07T09:27:59;14.40;49.30
24522;DHT22;12680;57.804;12.190;2023-05-07T09:30:30;14.50;48.50
24522;DHT22;12680;57.804;12.190;2023-05-07T09:33:02;14.50;48.20
24522;DHT22;12680;57.804;12.190;2023-05-07T09:35:30;14.60;48.00
24522;DHT22;12680;57.804;12.190;2023-05-07T09:37:58;14.60;47.80
24522;DHT22;12680;57.804;12.190;2023-05-07T09:40:30;14.70;47.60
24522;DHT22;12680;57.804;12.190;2023-05-07T09:43:09;14.70;47.50
24522;DHT22;12680;57.804;12.190;2023-05-07T09:45:37;14.80;47.40
24522;DHT22;12680;57.804;12.190;2023-05-07T09:48:05;14.90;47.50
24522;DHT22;12680;57.804;12.190;2023-05-07T09:50:55;15.00;46.90
24522;DHT22;12680;57.804;12.190;2023-05-07T09:53:25;15.00;46.90
24522;DHT22;12680;57.804;12.190;2023-05-07T09:55:53;15.20;46.70
24522;DHT22;12680;57.804;12.190;2023-05-07T09:58:20;15.20;46.40
24522;DHT22;12680;57.804;12.190;2023-05-07T10:00:50;15.20;46.00
24522;DHT22;12680;57.804;12.190;2023-05-07T10:03:19;15.10;44.70
24522;DHT22;12680;57.804;12.190;2023-05-07T10:05:47;15.10;45.40
24522;DHT22;12680;57.804;12.190;2023-05-07T10:08:14;15.10;45.20
24522;DHT22;12680;57.804;12.190;2023-05-07T10:10:44;15.10;45.00
24522;DHT22;12680;57.804;12.190;2023-05-07T10:13:11;15.20;44.40
24522;DHT22;12680;57.804;12.190;2023-05-07T10:15:39;15.30;44.90
24522;DHT22;12680;57.804;12.190;2023-05-07T10:18:06;15.40;45.20
24522;DHT22;12680;57.804;12.190;2023-05-07T10:20:36;15.50;45.40
24522;DHT22;12680;57.804;12.190;2023-05-07T10:23:05;15.60;44.90
24522;DHT22;12680;57.804;12.190;2023-05-07T10:25:32;15.90;44.40
24522;DHT22;12680;57.804;12.190;2023-05-07T10:28:06;16.40;44.70
24522;DHT22;12680;57.804;12.190;2023-05-07T10:31:07;15.70;43.90
24522;DHT22;12680;57.804;12.190;2023-05-07T10:33:35;15.80;44.10
24522;DHT22;12680;57.804;12.190;2023-05-07T10:36:03;15.90;44.40
24522;DHT22;12680;57.804;12.190;2023-05-07T10:38:32;15.90;44.50
24522;DHT22;12680;57.804;12.190;2023-05-07T10:40:58;16.10;44.50
24522;DHT22;12680;57.804;12.190;2023-05-07T10:43:41;17.30;44.50
24522;DHT22;12680;57.804;12.190;2023-05-07T10:46:17;16.20;43.90
24522;DHT22;12680;57.804;12.190;2023-05-07T10:51:30;16.30;44.10
24522;DHT22;12680;57.804;12.190;2023-05-07T10:56:39;16.40;43.80
24522;DHT22;12680;57.804;12.190;2023-05-07T11:01:53;16.60;44.00
24522;DHT22;12680;57.804;12.190;2023-05-07T11:04:21;17.50;44.40
24522;DHT22;12680;57.804;12.190;2023-05-07T11:09:57;16.70;43.10
24522;DHT22;12680;57.804;12.190;2023-05-07T11:15:13;16.80;42.90
24522;DHT22;12680;57.804;12.190;2023-05-07T11:17:57;16.80;43.30
24522;DHT22;12680;57.804;12.190;2023-05-07T11:20:51;17.00;43.40
24522;DHT22;12680;57.804;12.190;2023-05-07T11:28:37;17.30;42.40
24522;DHT22;12680;57.804;12.190;2023-05-07T11:31:04;17.40;42.10
24522;DHT22;12680;57.804;12.190;2023-05-07T11:33:32;17.40;41.50
24522;DHT22;12680;57.804;12.190;2023-05-07T11:36:00;18.40;42.20
24522;DHT22;12680;57.804;12.190;2023-05-07T11:38:29;17.50;41.20
24522;DHT22;12680;57.804;12.190;2023-05-07T11:40:57;17.50;41.00
24522;DHT22;12680;57.804;12.190;2023-05-07T11:43:27;17.50;41.30
24522;DHT22;12680;57.804;12.190;2023-05-07T11:45:54;17.70;41.40
24522;DHT22;12680;57.804;12.190;2023-05-07T11:48:21;17.80;41.20
24522;DHT22;12680;57.804;12.190;2023-05-07T11:50:54;17.80;41.30
24522;DHT22;12680;57.804;12.190;2023-05-07T11:53:25;17.90;40.80
24522;DHT22;12680;57.804;12.190;2023-05-07T11:55:57;17.80;40.80
24522;DHT22;12680;57.804;12.190;2023-05-07T11:58:25;17.80;40.90
24522;DHT22;12680;57.804;12.190;2023-05-07T12:00:54;17.80;41.20
24522;DHT22;12680;57.804;12.190;2023-05-07T12:03:21;17.90;41.30
24522;DHT22;12680;57.804;12.190;2023-05-07T12:05:48;17.90;40.90
24522;DHT22;12680;57.804;12.190;2023-05-07T12:08:16;17.90;41.20
24522;DHT22;12680;57.804;12.190;2023-05-07T12:10:44;18.00;41.00
24522;DHT22;12680;57.804;12.190;2023-05-07T12:13:22;18.10;41.10
24522;DHT22;12680;57.804;12.190;2023-05-07T12:15:53;18.20;41.20
24522;DHT22;12680;57.804;12.190;2023-05-07T12:18:21;18.30;41.30
24522;DHT22;12680;57.804;12.190;2023-05-07T12:20:48;18.50;41.10
24522;DHT22;12680;57.804;12.190;2023-05-07T12:23:15;18.50;40.80
24522;DHT22;12680;57.804;12.190;2023-05-07T12:25:43;18.60;40.50
24522;DHT22;12680;57.804;12.190;2023-05-07T12:28:14;18.70;40.50
24522;DHT22;12680;57.804;12.190;2023-05-07T12:30:46;18.70;40.20
24522;DHT22;12680;57.804;12.190;2023-05-07T12:33:17;18.70;39.80
24522;DHT22;12680;57.804;12.190;2023-05-07T12:35:44;18.70;39.70
24522;DHT22;12680;57.804;12.190;2023-05-07T12:38:13;18.90;40.00
24522;DHT22;12680;57.804;12.190;2023-05-07T12:40:42;19.00;39.70
24522;DHT22;12680;57.804;12.190;2023-05-07T12:43:23;19.20;39.50
24522;DHT22;12680;57.804;12.190;2023-05-07T12:45:52;19.30;39.30
24522;DHT22;12680;57.804;12.190;2023-05-07T12:48:20;19.40;39.10
24522;DHT22;12680;57.804;12.190;2023-05-07T12:50:51;20.60;38.50
24522;DHT22;12680;57.804;12.190;2023-05-07T12:53:21;19.30;38.40
24522;DHT22;12680;57.804;12.190;2023-05-07T12:55:49;19.30;37.90
24522;DHT22;12680;57.804;12.190;2023-05-07T13:00:48;19.30;37.30
24522;DHT22;12680;57.804;12.190;2023-05-07T13:03:28;19.30;38.00
24522;DHT22;12680;57.804;12.190;2023-05-07T13:05:57;19.40;38.20
24522;DHT22;12680;57.804;12.190;2023-05-07T13:08:35;19.40;38.00
24522;DHT22;12680;57.804;12.190;2023-05-07T13:11:08;19.40;37.40
24522;DHT22;12680;57.804;12.190;2023-05-07T13:13:36;19.20;38.00
24522;DHT22;12680;57.804;12.190;2023-05-07T13:16:04;19.30;37.80
24522;DHT22;12680;57.804;12.190;2023-05-07T13:18:33;19.30;37.90
24522;DHT22;12680;57.804;12.190;2023-05-07T13:21:01;19.20;37.70
24522;DHT22;12680;57.804;12.190;2023-05-07T13:23:28;19.40;37.90
24522;DHT22;12680;57.804;12.190;2023-05-07T13:25:55;19.40;38.10
24522;DHT22;12680;57.804;12.190;2023-05-07T13:28:25;19.50;37.90
24522;DHT22;12680;57.804;12.190;2023-05-07T13:30:53;19.60;37.90
24522;DHT22;12680;57.804;12.190;2023-05-07T13:33:21;19.60;38.20
24522;DHT22;12680;57.804;12.190;2023-05-07T13:35:48;19.70;38.00
24522;DHT22;12680;57.804;12.190;2023-05-07T13:38:14;19.80;37.60
24522;DHT22;12680;57.804;12.190;2023-05-07T13:40:42;19.70;37.30
24522;DHT22;12680;57.804;12.190;2023-05-07T13:43:09;19.70;37.30
24522;DHT22;12680;57.804;12.190;2023-05-07T13:45:37;19.80;37.40
24522;DHT22;12680;57.804;12.190;2023-05-07T13:48:04;19.60;37.00
24522;DHT22;12680;57.804;12.190;2023-05-07T13:50:31;19.50;36.90
24522;DHT22;12680;57.804;12.190;2023-05-07T13:52:57;19.50;37.60
24522;DHT22;12680;57.804;12.190;2023-05-07T13:55:24;19.60;37.50
24522;DHT22;12680;57.804;12.190;2023-05-07T13:57:56;19.70;37.70
24522;DHT22;12680;57.804;12.190;2023-05-07T14:00:25;19.90;37.80
24522;DHT22;12680;57.804;12.190;2023-05-07T14:02:53;20.00;37.80
24522;DHT22;12680;57.804;12.190;2023-05-07T14:05:20;20.10;37.50
24522;DHT22;12680;57.804;12.190;2023-05-07T14:07:46;20.20;37.50
24522;DHT22;12680;57.804;12.190;2023-05-07T14:10:15;20.20;36.70
24522;DHT22;12680;57.804;12.190;2023-05-07T14:12:43;20.30;36.20
24522;DHT22;12680;57.804;12.190;2023-05-07T14:15:10;20.30;36.10
24522;DHT22;12680;57.804;12.190;2023-05-07T14:17:37;20.20;35.50
24522;DHT22;12680;57.804;12.190;2023-05-07T14:20:04;20.00;35.70
24522;DHT22;12680;57.804;12.190;2023-05-07T14:22:33;20.10;36.40
24522;DHT22;12680;57.804;12.190;2023-05-07T14:25:00;20.20;36.70
24522;DHT22;12680;57.804;12.190;2023-05-07T14:27:32;20.30;36.80
24522;DHT22;12680;57.804;12.190;2023-05-07T14:29:59;20.20;36.70
24522;DHT22;12680;57.804;12.190;2023-05-07T14:32:26;20.00;36.70
24522;DHT22;12680;57.804;12.190;2023-05-07T14:34:53;19.70;38.20
24522;DHT22;12680;57.804;12.190;2023-05-07T14:37:20;19.50;38.40
24522;DHT22;12680;57.804;12.190;2023-05-07T14:39:46;19.20;39.00
24522;DHT22;12680;57.804;12.190;2023-05-07T14:42:17;19.10;39.50
24522;DHT22;12680;57.804;12.190;2023-05-07T14:44:44;19.00;39.80
24522;DHT22;12680;57.804;12.190;2023-05-07T14:47:12;19.00;40.40
24522;DHT22;12680;57.804;12.190;2023-05-07T14:49:39;19.00;40.60
24522;DHT22;12680;57.804;12.190;2023-05-07T14:52:07;18.80;40.60
24522;DHT22;12680;57.804;12.190;2023-05-07T14:54:36;18.50;40.50
24522;DHT22;12680;57.804;12.190;2023-05-07T14:57:06;18.30;41.10
24522;DHT22;12680;57.804;12.190;2023-05-07T14:59:33;18.00;41.30
24522;DHT22;12680;57.804;12.190;2023-05-07T15:02:00;18.00;41.70
24522;DHT22;12680;57.804;12.190;2023-05-07T15:04:31;17.90;41.80
24522;DHT22;12680;57.804;12.190;2023-05-07T15:06:57;17.80;42.10
24522;DHT22;12680;57.804;12.190;2023-05-07T15:09:24;17.90;42.50
24522;DHT22;12680;57.804;12.190;2023-05-07T15:11:51;17.90;42.10
24522;DHT22;12680;57.804;12.190;2023-05-07T15:14:18;18.80;42.50
24522;DHT22;12680;57.804;12.190;2023-05-07T15:16:44;17.80;42.40
24522;DHT22;12680;57.804;12.190;2023-05-07T15:19:12;17.90;42.40
24522;DHT22;12680;57.804;12.190;2023-05-07T15:21:41;17.80;42.10
24522;DHT22;12680;57.804;12.190;2023-05-07T15:24:08;18.70;42.40
24522;DHT22;12680;57.804;12.190;2023-05-07T15:26:35;17.60;42.40
24522;DHT22;12680;57.804;12.190;2023-05-07T15:29:02;17.60;42.90
24522;DHT22;12680;57.804;12.190;2023-05-07T15:31:34;17.70;43.30
24522;DHT22;12680;57.804;12.190;2023-05-07T15:34:01;17.70;43.00
24522;DHT22;12680;57.804;12.190;2023-05-07T15:36:28;17.60;42.80
24522;DHT22;12680;57.804;12.190;2023-05-07T15:38:55;17.50;42.90
24522;DHT22;12680;57.804;12.190;2023-05-07T15:41:22;17.50;43.10
24522;DHT22;12680;57.804;12.190;2023-05-07T15:43:51;17.60;43.20
24522;DHT22;12680;57.804;12.190;2023-05-07T15:46:20;18.10;43.70
24522;DHT22;12680;57.804;12.190;2023-05-07T15:48:47;17.70;43.20